createdAt,value
2023-01-17T00:01:49.543Z,94696.50
2023-01-17T00:04:35.870Z,94713.06
2023-01-17T00:07:20.853Z,94717.97
2023-01-17T00:09:53.759Z,94727.38
2023-01-17T00:12:21.220Z,94705.88
2023-01-17T00:14:48.848Z,94706.03
2023-01-17T00:17:15.922Z,94707.94
2023-01-17T00:20:01.272Z,94701.78
2023-01-17T00:22:48.890Z,94702.13
2023-01-17T00:25:37.383Z,94701.59
2023-01-17T00:28:05.121Z,94720.19
2023-01-17T00:30:31.890Z,94680.88
2023-01-17T00:32:58.885Z,94711.06
2023-01-17T00:35:27.807Z,94715.38
2023-01-17T00:38:02.255Z,94721.31
2023-01-17T00:40:28.832Z,94714.69
2023-01-17T00:43:14.305Z,94726.69
2023-01-17T00:46:01.784Z,94715.06
2023-01-17T00:48:47.251Z,94715.13
2023-01-17T00:51:32.666Z,94725.56
2023-01-17T00:54:19.121Z,94717.38
2023-01-17T00:57:04.378Z,94717.13
2023-01-17T00:59:50.203Z,94718.88
2023-01-17T01:02:35.608Z,94713.94
2023-01-17T01:05:20.993Z,94707.25
2023-01-17T01:08:06.461Z,94710.38
2023-01-17T01:10:52.515Z,94705.69
2023-01-17T01:13:40.845Z,94704.91
2023-01-17T01:16:26.711Z,94716.19
2023-01-17T01:19:12.090Z,94713.13
2023-01-17T01:21:57.714Z,94698.84
2023-01-17T01:24:42.894Z,94706.03
2023-01-17T01:27:28.702Z,94711.84
2023-01-17T01:30:14.149Z,94723.38
2023-01-17T01:32:59.702Z,94716.88
2023-01-17T01:35:26.711Z,94707.44
2023-01-17T01:38:02.341Z,94708.88
2023-01-17T01:40:29.046Z,94703.09
2023-01-17T01:42:58.055Z,94711.16
2023-01-17T01:45:30.308Z,94704.84
2023-01-17T01:48:02.857Z,94686.63
2023-01-17T01:50:31.986Z,94714.34
2023-01-17T01:53:02.577Z,94682.13
2023-01-17T01:55:35.950Z,94695.13
2023-01-17T01:58:10.289Z,94701.34
2023-01-17T02:00:38.780Z,94715.22
2023-01-17T02:03:15.404Z,94702.47
2023-01-17T02:05:44.200Z,94697.53
2023-01-17T02:08:22.920Z,94694.16
2023-01-17T02:10:51.089Z,94691.13
2023-01-17T02:13:20.018Z,94692.59
2023-01-17T02:16:10.044Z,94692.53
2023-01-17T02:18:52.283Z,94695.03
2023-01-17T02:21:45.133Z,94695.91
2023-01-17T02:24:49.506Z,94700.84
2023-01-17T02:27:43.003Z,94680.13
2023-01-17T02:30:23.690Z,94704.47
2023-01-17T02:33:16.863Z,94702.38
2023-01-17T02:35:57.260Z,94687.91
2023-01-17T02:38:32.787Z,94707.59
2023-01-17T02:41:31.166Z,94711.22
2023-01-17T02:43:57.728Z,94702.19
2023-01-17T02:46:24.795Z,94710.97
2023-01-17T02:48:51.956Z,94702.34
2023-01-17T02:51:45.711Z,94705.31
2023-01-17T02:54:38.033Z,94706.31
2023-01-17T02:57:18.297Z,94703.00
2023-01-17T03:00:03.850Z,94699.09
2023-01-17T03:02:52.103Z,94705.50
2023-01-17T03:05:27.609Z,94713.38
2023-01-17T03:07:55.149Z,94703.22
2023-01-17T03:10:22.638Z,94709.47
2023-01-17T03:12:50.053Z,94712.75
2023-01-17T03:15:17.849Z,94717.13
2023-01-17T03:17:49.374Z,94722.38
2023-01-17T03:20:16.558Z,94723.75
2023-01-17T03:22:43.059Z,94722.75
2023-01-17T03:25:09.683Z,94729.00
2023-01-17T03:27:36.345Z,94730.69
2023-01-17T03:30:03.529Z,94739.09
2023-01-17T03:32:30.196Z,94742.34
2023-01-17T03:34:56.993Z,94749.50
2023-01-17T03:37:23.798Z,94750.97
2023-01-17T03:39:50.587Z,94749.16
2023-01-17T03:42:17.404Z,94752.66
2023-01-17T03:44:43.931Z,94761.47
2023-01-17T03:47:12.284Z,94740.94
2023-01-17T03:49:39.658Z,94757.47
2023-01-17T03:52:07.470Z,94770.41
2023-01-17T03:54:34.407Z,94747.28
2023-01-17T03:57:01.002Z,94754.31
2023-01-17T03:59:27.897Z,94768.84
2023-01-17T04:01:54.532Z,94763.50
2023-01-17T04:04:21.238Z,94754.00
2023-01-17T04:06:48.461Z,94746.97
2023-01-17T04:09:18.139Z,94760.22
2023-01-17T04:11:45.066Z,94757.22
2023-01-17T04:14:14.690Z,94781.13
2023-01-17T04:16:42.473Z,94773.31
2023-01-17T04:19:13.171Z,94761.69
2023-01-17T04:21:39.922Z,94772.72
2023-01-17T04:24:07.147Z,94779.34
2023-01-17T04:26:33.718Z,94767.03
2023-01-17T04:29:00.347Z,94786.03
2023-01-17T04:31:26.946Z,94774.94
2023-01-17T04:33:53.794Z,94777.41
2023-01-17T04:36:20.397Z,94769.13
2023-01-17T04:38:46.963Z,94773.69
2023-01-17T04:41:13.720Z,94775.28
2023-01-17T04:43:40.469Z,94763.75
2023-01-17T04:46:10.357Z,94762.41
2023-01-17T04:48:37.178Z,94773.34
2023-01-17T04:51:05.272Z,94745.97
2023-01-17T04:53:31.933Z,94776.94
2023-01-17T04:55:58.600Z,94741.72
2023-01-17T04:58:25.263Z,94760.41
2023-01-17T05:00:52.185Z,94756.91
2023-01-17T05:03:20.488Z,94762.88
2023-01-17T05:05:48.116Z,94758.94
2023-01-17T05:08:15.243Z,94758.19
2023-01-17T05:10:42.091Z,94753.91
2023-01-17T05:13:09.305Z,94764.97
2023-01-17T05:15:37.002Z,94768.44
2023-01-17T05:18:08.561Z,94767.88
2023-01-17T05:20:35.925Z,94778.03
2023-01-17T05:23:02.563Z,94778.34
2023-01-17T05:25:32.111Z,94742.16
2023-01-17T05:28:02.671Z,94756.69
2023-01-17T05:30:30.918Z,94768.31
2023-01-17T05:32:59.092Z,94765.41
2023-01-17T05:35:29.017Z,94769.25
2023-01-17T05:37:56.335Z,94764.78
2023-01-17T05:40:25.794Z,94759.09
2023-01-17T05:42:55.623Z,94762.34
2023-01-17T05:45:24.455Z,94765.22
2023-01-17T05:47:53.254Z,94763.66
2023-01-17T05:50:23.175Z,94769.94
2023-01-17T05:52:55.093Z,94777.97
2023-01-17T05:55:22.971Z,94780.09
2023-01-17T05:57:50.679Z,94771.59
2023-01-17T06:00:18.005Z,94776.28
2023-01-17T06:02:45.704Z,94772.34
2023-01-17T06:05:13.277Z,94765.22
2023-01-17T06:07:46.575Z,94763.47
2023-01-17T06:10:17.930Z,94766.69
2023-01-17T06:12:45.873Z,94764.47
2023-01-17T06:15:13.891Z,94773.53
2023-01-17T06:17:40.647Z,94782.47
2023-01-17T06:20:09.235Z,94780.09
2023-01-17T06:22:37.803Z,94787.84
2023-01-17T06:25:07.608Z,94791.84
2023-01-17T06:27:34.464Z,94796.28
2023-01-17T06:30:00.991Z,94798.50
2023-01-17T06:32:27.886Z,94788.59
2023-01-17T06:34:54.470Z,94791.38
2023-01-17T06:37:21.262Z,94784.13
2023-01-17T06:39:48.088Z,94784.25
2023-01-17T06:42:14.784Z,94796.88
2023-01-17T06:44:41.377Z,94775.75
2023-01-17T06:47:07.953Z,94799.00
2023-01-17T06:49:34.777Z,94804.38
2023-01-17T06:52:01.416Z,94805.50
2023-01-17T06:54:28.033Z,94798.31
2023-01-17T06:56:54.687Z,94806.03
2023-01-17T06:59:21.474Z,94802.25
2023-01-17T07:01:48.197Z,94781.34
2023-01-17T07:04:15.252Z,94807.38
2023-01-17T07:06:41.951Z,94797.00
2023-01-17T07:09:08.512Z,94802.34
2023-01-17T07:11:35.183Z,94799.69
2023-01-17T07:14:01.805Z,94797.34
2023-01-17T07:16:28.491Z,94804.38
2023-01-17T07:18:57.117Z,94804.81
2023-01-17T07:21:23.887Z,94807.28
2023-01-17T07:23:50.645Z,94816.22
2023-01-17T07:26:18.664Z,94787.19
2023-01-17T07:28:45.372Z,94814.56
2023-01-17T07:31:12.062Z,94818.59
2023-01-17T07:33:38.630Z,94811.41
2023-01-17T07:36:07.665Z,94813.88
2023-01-17T07:38:34.747Z,94815.53
2023-01-17T07:41:01.474Z,94816.56
2023-01-17T07:43:28.185Z,94814.41
2023-01-17T07:45:54.966Z,94807.94
2023-01-17T07:48:24.311Z,94812.19
2023-01-17T07:50:57.349Z,94821.03
2023-01-17T07:53:30.132Z,94818.25
2023-01-17T07:56:04.807Z,94821.69
2023-01-17T07:58:32.842Z,94832.31
2023-01-17T08:01:08.221Z,94840.59
2023-01-17T08:03:40.306Z,94851.63
2023-01-17T08:06:16.538Z,94849.84
2023-01-17T08:08:43.421Z,94849.94
2023-01-17T08:11:10.002Z,94856.66
2023-01-17T08:13:36.706Z,94855.63
2023-01-17T08:16:03.694Z,94856.44
2023-01-17T08:18:30.879Z,94858.63
2023-01-17T08:20:57.473Z,94871.03
2023-01-17T08:23:24.142Z,94866.22
2023-01-17T08:25:51.075Z,94868.44
2023-01-17T08:28:17.976Z,94863.59
2023-01-17T08:30:44.563Z,94867.28
2023-01-17T08:33:11.452Z,94857.75
2023-01-17T08:35:38.051Z,94848.09
2023-01-17T08:38:05.039Z,94867.53
2023-01-17T08:40:35.271Z,94855.88
2023-01-17T08:43:01.877Z,94863.28
2023-01-17T08:45:29.395Z,94871.56
2023-01-17T08:47:58.727Z,94874.78
2023-01-17T08:50:26.137Z,94858.19
2023-01-17T08:53:00.930Z,94870.28
2023-01-17T08:55:27.897Z,94875.75
2023-01-17T08:57:54.935Z,94874.19
2023-01-17T09:00:22.008Z,94876.19
2023-01-17T09:02:51.519Z,94870.13
2023-01-17T09:05:18.240Z,94879.47
2023-01-17T09:07:44.855Z,94881.16
2023-01-17T09:10:19.710Z,94882.81
2023-01-17T09:12:48.240Z,94874.53
2023-01-17T09:15:17.849Z,94873.84
2023-01-17T09:17:44.819Z,94881.31
2023-01-17T09:20:11.916Z,94896.53
2023-01-17T09:22:39.139Z,94888.47
2023-01-17T09:25:06.935Z,94881.84
2023-01-17T09:27:33.723Z,94881.50
2023-01-17T09:30:00.471Z,94886.97
2023-01-17T09:32:27.112Z,94880.28
2023-01-17T09:34:53.777Z,94890.28
2023-01-17T09:37:20.347Z,94855.53
2023-01-17T09:39:46.873Z,94892.19
2023-01-17T09:42:36.438Z,94889.50
2023-01-17T09:45:03.261Z,94890.63
2023-01-17T09:47:45.199Z,94892.88
2023-01-17T09:50:31.997Z,94905.66
2023-01-17T09:53:03.275Z,94898.34
2023-01-17T09:55:40.042Z,94894.53
2023-01-17T09:58:12.895Z,94892.78
2023-01-17T10:00:54.225Z,94870.66
2023-01-17T10:03:39.652Z,94882.81
2023-01-17T10:06:27.435Z,94893.47
2023-01-17T10:09:20.395Z,94887.03
2023-01-17T10:11:57.054Z,94892.94
2023-01-17T10:14:54.611Z,94899.81
2023-01-17T10:17:21.231Z,94902.72
2023-01-17T10:20:34.345Z,94895.69
2023-01-17T10:23:04.155Z,94895.13
2023-01-17T10:25:54.918Z,94893.53
2023-01-17T10:28:30.652Z,94885.06
2023-01-17T10:31:09.959Z,94890.53
2023-01-17T10:33:50.179Z,94874.88
2023-01-17T10:36:22.724Z,94884.72
2023-01-17T10:38:56.393Z,94872.03
2023-01-17T10:41:28.474Z,94887.69
2023-01-17T10:44:15.566Z,94856.63
2023-01-17T10:47:24.747Z,94879.59
2023-01-17T10:49:53.898Z,94887.28
2023-01-17T10:52:26.415Z,94884.94
2023-01-17T10:55:14.270Z,94886.13
2023-01-17T10:57:45.923Z,94892.31
2023-01-17T11:00:18.610Z,94893.34
2023-01-17T11:02:50.574Z,94890.44
2023-01-17T11:05:29.258Z,94887.81
2023-01-17T11:08:07.479Z,94885.94
2023-01-17T11:10:43.359Z,94879.72
2023-01-17T11:13:28.228Z,94900.66
2023-01-17T11:15:59.129Z,94886.25
2023-01-17T11:18:29.994Z,94899.75
2023-01-17T11:21:17.548Z,94895.84
2023-01-17T11:23:50.923Z,94898.03
2023-01-17T11:26:32.866Z,94911.19
2023-01-17T11:29:25.560Z,94915.81
2023-01-17T11:31:52.636Z,94919.00
2023-01-17T11:34:25.092Z,94908.50
2023-01-17T11:37:17.098Z,94918.28
2023-01-17T11:39:44.565Z,94905.81
2023-01-17T11:42:35.412Z,94920.91
2023-01-17T11:45:25.624Z,94909.00
2023-01-17T11:48:05.854Z,94912.47
2023-01-17T11:50:32.437Z,94899.38
2023-01-17T11:53:26.806Z,94890.53
2023-01-17T11:55:58.228Z,94884.75
2023-01-17T11:58:26.768Z,94884.00
2023-01-17T12:01:07.876Z,94895.63
2023-01-17T12:03:52.099Z,94901.81
2023-01-17T12:06:30.918Z,94895.63
2023-01-17T12:09:09.808Z,94890.38
2023-01-17T12:12:13.530Z,94888.22
2023-01-17T12:14:54.260Z,94882.72
2023-01-17T12:17:32.992Z,94879.53
2023-01-17T12:20:06.284Z,94870.97
2023-01-17T12:22:52.096Z,94871.44
2023-01-17T12:25:24.953Z,94871.88
2023-01-17T12:28:22.368Z,94875.00
2023-01-17T12:31:16.032Z,94877.59
2023-01-17T12:33:50.968Z,94864.97
2023-01-17T12:36:49.471Z,94865.44
2023-01-17T12:39:20.656Z,94865.63
2023-01-17T12:41:56.481Z,94878.44
2023-01-17T12:44:51.863Z,94872.22
2023-01-17T12:47:20.867Z,94873.06
2023-01-17T12:50:03.317Z,94869.19
2023-01-17T12:52:37.371Z,94874.59
2023-01-17T12:55:13.810Z,94876.91
2023-01-17T12:57:45.288Z,94879.97
2023-01-17T13:00:23.176Z,94891.50
2023-01-17T13:03:08.555Z,94907.25
2023-01-17T13:05:45.329Z,94894.56
2023-01-17T13:08:41.755Z,94913.75
2023-01-17T13:11:28.388Z,94912.13
2023-01-17T13:13:58.019Z,94899.19
2023-01-17T13:16:33.982Z,94908.84
2023-01-17T13:19:11.359Z,94920.13
2023-01-17T13:21:38.262Z,94922.06
2023-01-17T13:24:19.651Z,94925.88
2023-01-17T13:26:55.789Z,94925.47
2023-01-17T13:29:53.392Z,94920.06
2023-01-17T13:32:38.975Z,94922.06
2023-01-17T13:35:24.010Z,94924.38
2023-01-17T13:38:16.553Z,94920.50
2023-01-17T13:40:49.321Z,94920.44
2023-01-17T13:43:24.337Z,94914.19
2023-01-17T13:45:53.722Z,94911.06
2023-01-17T13:48:23.406Z,94921.84
2023-01-17T13:51:20.334Z,94920.97
2023-01-17T13:53:47.954Z,94923.69
2023-01-17T13:56:31.602Z,94945.63
2023-01-17T13:59:02.858Z,94952.16
2023-01-17T14:01:32.618Z,94959.13
2023-01-17T14:03:59.147Z,94957.13
2023-01-17T14:06:29.020Z,94953.22
2023-01-17T14:09:18.600Z,94946.22
2023-01-17T14:12:23.866Z,94956.56
2023-01-17T14:14:56.952Z,94961.09
2023-01-17T14:17:58.132Z,94960.34
2023-01-17T14:20:28.215Z,94988.25
2023-01-17T14:23:01.528Z,94995.41
2023-01-17T14:25:39.240Z,94983.69
2023-01-17T14:28:31.873Z,95004.13
2023-01-17T14:31:03.110Z,95004.06
2023-01-17T14:33:35.458Z,95017.53
2023-01-17T14:36:05.884Z,95021.63
2023-01-17T14:38:34.224Z,95030.75
2023-01-17T14:41:08.748Z,95028.69
2023-01-17T14:43:42.404Z,95038.94
2023-01-17T14:46:18.894Z,95031.63
2023-01-17T14:48:46.161Z,95048.56
2023-01-17T14:51:14.986Z,95047.63
2023-01-17T14:53:52.617Z,95008.31
2023-01-17T14:56:20.441Z,95060.03
2023-01-17T14:58:47.181Z,95027.69
2023-01-17T15:01:21.288Z,95058.38
2023-01-17T15:03:55.232Z,95057.41
2023-01-17T15:06:32.667Z,95052.72
2023-01-17T15:09:03.666Z,95066.25
2023-01-17T15:11:35.375Z,95046.00
2023-01-17T15:14:06.069Z,95039.56
2023-01-17T15:16:38.151Z,95037.19
2023-01-17T15:19:15.122Z,95059.63
2023-01-17T15:21:44.002Z,95061.34
2023-01-17T15:24:18.356Z,95076.72
2023-01-17T15:26:45.538Z,95076.72
2023-01-17T15:29:27.138Z,95081.13
2023-01-17T15:31:58.308Z,95088.66
2023-01-17T15:34:29.732Z,95090.06
2023-01-17T15:37:03.764Z,95086.38
2023-01-17T15:39:34.422Z,95078.88
2023-01-17T15:42:05.319Z,95074.25
2023-01-17T15:44:49.389Z,95070.34
2023-01-17T15:47:33.113Z,95068.00
2023-01-17T15:50:03.262Z,95074.28
2023-01-17T15:52:30.390Z,95076.88
2023-01-17T15:55:12.637Z,95070.81
2023-01-17T15:57:40.070Z,95070.41
2023-01-17T16:00:15.093Z,95079.78
2023-01-17T16:02:44.242Z,95072.41
2023-01-17T16:05:42.128Z,95079.81
2023-01-17T16:08:08.707Z,95078.91
2023-01-17T16:10:37.881Z,95068.25
2023-01-17T16:13:10.703Z,95053.59
2023-01-17T16:15:38.227Z,95051.69
2023-01-17T16:18:15.788Z,95047.56
2023-01-17T16:21:05.773Z,95033.44
2023-01-17T16:23:32.713Z,95043.91
2023-01-17T16:25:59.253Z,95027.69
2023-01-17T16:28:25.872Z,95048.94
2023-01-17T16:30:54.186Z,95042.53
2023-01-17T16:33:20.816Z,95047.22
2023-01-17T16:35:47.490Z,95053.72
2023-01-17T16:38:19.863Z,95048.56
2023-01-17T16:40:47.549Z,95060.88
2023-01-17T16:43:16.070Z,95050.09
2023-01-17T16:45:45.884Z,95025.00
2023-01-17T16:48:13.033Z,95042.13
2023-01-17T16:50:48.368Z,95030.03
2023-01-17T16:53:16.256Z,95027.09
2023-01-17T16:55:43.892Z,95019.28
2023-01-17T16:58:10.911Z,95025.16
2023-01-17T17:00:37.744Z,95005.66
2023-01-17T17:03:04.342Z,95015.47
2023-01-17T17:05:33.590Z,95013.00
2023-01-17T17:08:00.964Z,95010.72
2023-01-17T17:10:27.870Z,95018.56
2023-01-17T17:12:54.644Z,95004.25
2023-01-17T17:15:21.636Z,94998.75
2023-01-17T17:17:48.391Z,94997.59
2023-01-17T17:20:15.812Z,94998.88
2023-01-17T17:22:44.424Z,95008.69
2023-01-17T17:25:12.214Z,95016.34
2023-01-17T17:27:39.126Z,95033.69
2023-01-17T17:30:06.461Z,95021.00
2023-01-17T17:32:33.006Z,95013.94
2023-01-17T17:34:59.668Z,95024.50
2023-01-17T17:37:29.061Z,95028.09
2023-01-17T17:39:56.832Z,95017.25
2023-01-17T17:42:23.827Z,95030.72
2023-01-17T17:44:51.459Z,95015.50
2023-01-17T17:47:18.206Z,94968.56
2023-01-17T17:49:44.892Z,95004.47
2023-01-17T17:52:11.892Z,94993.91
2023-01-17T17:54:38.632Z,94980.63
2023-01-17T17:57:05.992Z,94994.63
2023-01-17T17:59:32.583Z,94952.44
2023-01-17T18:02:00.130Z,95013.38
2023-01-17T18:04:27.443Z,95005.84
2023-01-17T18:06:57.736Z,95025.53
2023-01-17T18:09:24.558Z,94991.31
2023-01-17T18:11:51.246Z,95043.28
2023-01-17T18:14:20.976Z,95016.22
2023-01-17T18:16:48.278Z,95014.59
2023-01-17T18:19:21.030Z,95038.81
2023-01-17T18:21:48.866Z,95050.44
2023-01-17T18:24:17.623Z,95059.06
2023-01-17T18:26:46.767Z,95053.06
2023-01-17T18:29:16.476Z,95054.81
2023-01-17T18:31:44.821Z,95020.81
2023-01-17T18:34:16.778Z,95051.88
2023-01-17T18:36:43.935Z,95049.66
2023-01-17T18:39:19.621Z,95025.84
2023-01-17T18:41:46.678Z,95029.47
2023-01-17T18:44:13.572Z,95020.19
2023-01-17T18:46:42.144Z,95006.50
2023-01-17T18:49:16.663Z,95034.69
2023-01-17T18:51:46.667Z,95006.88
2023-01-17T18:54:13.603Z,95038.50
2023-01-17T18:56:40.375Z,95057.25
2023-01-17T18:59:07.159Z,95053.16
2023-01-17T19:01:35.866Z,95059.59
2023-01-17T19:04:04.283Z,95066.34
2023-01-17T19:06:37.177Z,95067.59
2023-01-17T19:09:06.450Z,95065.53
2023-01-17T19:11:33.924Z,95056.44
2023-01-17T19:14:01.568Z,95058.66
2023-01-17T19:16:30.622Z,95056.66
2023-01-17T19:19:07.416Z,95024.63
2023-01-17T19:21:34.755Z,95040.00
2023-01-17T19:24:01.790Z,95052.69
2023-01-17T19:26:29.360Z,95041.69
2023-01-17T19:28:58.822Z,95045.44
2023-01-17T19:31:28.146Z,95049.50
2023-01-17T19:33:57.622Z,95047.34
2023-01-17T19:36:26.929Z,95034.31
2023-01-17T19:39:03.948Z,95042.66
2023-01-17T19:41:32.559Z,95037.75
2023-01-17T19:44:05.167Z,95038.53
2023-01-17T19:46:32.543Z,95037.09
2023-01-17T19:48:59.720Z,95029.34
2023-01-17T19:51:28.032Z,95025.69
2023-01-17T19:53:55.863Z,94997.13
2023-01-17T19:56:26.283Z,95011.38
2023-01-17T19:58:54.484Z,95013.59
2023-01-17T20:01:24.833Z,95018.31
2023-01-17T20:03:52.252Z,95007.47
2023-01-17T20:06:21.615Z,95006.16
2023-01-17T20:08:48.775Z,94974.28
2023-01-17T20:11:22.123Z,95016.22
2023-01-17T20:13:53.563Z,95017.94
2023-01-17T20:16:21.082Z,95003.47
2023-01-17T20:18:51.931Z,94997.47
2023-01-17T20:21:21.493Z,94984.69
2023-01-17T20:23:49.364Z,94991.28
2023-01-17T20:26:19.136Z,94975.56
2023-01-17T20:28:47.753Z,94967.13
2023-01-17T20:31:20.166Z,94962.59
2023-01-17T20:33:50.404Z,94963.19
2023-01-17T20:36:19.442Z,94947.41
2023-01-17T20:38:46.568Z,94955.06
2023-01-17T20:41:18.635Z,94957.22
2023-01-17T20:43:47.710Z,94947.72
2023-01-17T20:46:15.820Z,94934.75
2023-01-17T20:48:51.362Z,94928.50
2023-01-17T20:51:18.943Z,94937.25
2023-01-17T20:53:46.954Z,94943.38
2023-01-17T20:56:15.489Z,94937.09
2023-01-17T20:58:42.876Z,94939.47
2023-01-17T21:01:11.864Z,94931.63
2023-01-17T21:03:39.825Z,94932.19
2023-01-17T21:06:09.153Z,94938.13
2023-01-17T21:08:41.304Z,94937.00
2023-01-17T21:11:17.221Z,94945.94
2023-01-17T21:13:52.694Z,94911.69
2023-01-17T21:16:23.124Z,94944.91
2023-01-17T21:18:52.794Z,94920.53
2023-01-17T21:21:30.801Z,94854.31
2023-01-17T21:23:59.252Z,94899.09
2023-01-17T21:26:27.902Z,94922.13
2023-01-17T21:28:54.807Z,94942.53
2023-01-17T21:31:25.006Z,94910.06
2023-01-17T21:34:00.479Z,94936.94
2023-01-17T21:36:46.662Z,94947.25
2023-01-17T21:39:17.464Z,94927.09
2023-01-17T21:41:48.101Z,94920.81
2023-01-17T21:44:16.969Z,94953.50
2023-01-17T21:46:45.436Z,94917.94
2023-01-17T21:49:12.327Z,94957.44
2023-01-17T21:51:54.127Z,94955.75
2023-01-17T21:54:42.092Z,94942.63
2023-01-17T21:57:28.274Z,94927.84
2023-01-17T21:59:55.237Z,94937.63
2023-01-17T22:02:21.982Z,94941.63
2023-01-17T22:04:48.893Z,94944.13
2023-01-17T22:07:16.600Z,94934.59
2023-01-17T22:09:43.197Z,94929.59
2023-01-17T22:12:09.817Z,94940.09
2023-01-17T22:14:38.089Z,94937.75
2023-01-17T22:17:04.698Z,94922.75
2023-01-17T22:19:31.492Z,94919.72
2023-01-17T22:21:58.069Z,94925.91
2023-01-17T22:24:24.765Z,94912.38
2023-01-17T22:26:51.317Z,94925.59
2023-01-17T22:29:19.090Z,94911.94
2023-01-17T22:31:45.976Z,94920.22
2023-01-17T22:34:14.036Z,94905.34
2023-01-17T22:36:41.094Z,94908.13
2023-01-17T22:39:09.378Z,94909.47
2023-01-17T22:41:38.000Z,94906.81
2023-01-17T22:44:08.620Z,94896.72
2023-01-17T22:46:37.314Z,94896.94
2023-01-17T22:49:05.909Z,94893.94
2023-01-17T22:51:32.497Z,94879.41
2023-01-17T22:54:03.441Z,94876.38
2023-01-17T22:56:32.843Z,94875.25
2023-01-17T22:59:04.199Z,94867.22
2023-01-17T23:01:32.745Z,94848.09
2023-01-17T23:04:04.338Z,94858.81
2023-01-17T23:06:33.190Z,94843.28
2023-01-17T23:09:02.815Z,94855.34
2023-01-17T23:11:41.290Z,94861.63
2023-01-17T23:14:14.962Z,94858.25
2023-01-17T23:17:16.838Z,94859.16
2023-01-17T23:19:51.068Z,94856.69
2023-01-17T23:22:27.202Z,94856.59
2023-01-17T23:25:01.594Z,94855.38
2023-01-17T23:27:48.223Z,94852.44
2023-01-17T23:30:19.586Z,94833.00
2023-01-17T23:32:51.857Z,94828.09
2023-01-17T23:35:20.744Z,94826.97
2023-01-17T23:38:07.877Z,94821.59
2023-01-17T23:40:36.541Z,94813.22
2023-01-17T23:43:22.323Z,94797.13
2023-01-17T23:45:53.106Z,94803.25
2023-01-17T23:48:20.960Z,94799.69
2023-01-17T23:50:48.636Z,94795.91
2023-01-17T23:53:22.475Z,94793.75
2023-01-17T23:55:54.947Z,94793.31
2023-01-17T23:58:24.335Z,94794.09
